createdAt,value
2023-05-12T00:00:47.605Z,11.72
2023-05-12T00:01:49.649Z,11.73
2023-05-12T00:02:52.058Z,11.72
2023-05-12T00:03:54.605Z,11.71
2023-05-12T00:04:57.092Z,11.71
2023-05-12T00:06:00.823Z,11.71
2023-05-12T00:07:03.016Z,11.70
2023-05-12T00:08:05.124Z,11.71
2023-05-12T00:09:07.226Z,11.70
2023-05-12T00:10:11.963Z,11.68
2023-05-12T00:11:14.124Z,11.66
2023-05-12T00:12:16.176Z,11.66
2023-05-12T00:13:18.313Z,11.65
2023-05-12T00:14:20.247Z,11.62
2023-05-12T00:15:22.463Z,11.60
2023-05-12T00:16:24.531Z,11.58
2023-05-12T00:17:28.811Z,11.55
2023-05-12T00:18:31.322Z,11.53
2023-05-12T00:19:33.809Z,11.51
2023-05-12T00:20:39.962Z,11.48
2023-05-12T00:21:42.274Z,11.46
2023-05-12T00:22:44.260Z,11.41
2023-05-12T00:23:46.613Z,11.36
2023-05-12T00:24:48.935Z,11.32
2023-05-12T00:25:50.933Z,11.29
2023-05-12T00:26:55.402Z,11.24
2023-05-12T00:27:57.505Z,11.21
2023-05-12T00:28:59.530Z,11.18
2023-05-12T00:30:02.014Z,11.14
2023-05-12T00:31:04.995Z,11.13
2023-05-12T00:32:07.443Z,11.10
2023-05-12T00:33:09.545Z,11.07
2023-05-12T00:34:11.484Z,11.05
2023-05-12T00:35:13.517Z,11.04
2023-05-12T00:36:16.504Z,11.02
2023-05-12T00:37:19.132Z,10.99
2023-05-12T00:38:21.580Z,10.95
2023-05-12T00:39:24.932Z,10.93
2023-05-12T00:40:27.441Z,10.89
2023-05-12T00:41:29.331Z,10.86
2023-05-12T00:42:33.807Z,10.83
2023-05-12T00:43:36.130Z,10.80
2023-05-12T00:44:38.542Z,10.77
2023-05-12T00:45:40.752Z,10.73
2023-05-12T00:46:43.252Z,10.70
2023-05-12T00:47:46.249Z,10.66
2023-05-12T00:48:48.538Z,10.63
2023-05-12T00:49:50.926Z,10.60
2023-05-12T00:50:54.682Z,10.57
2023-05-12T00:51:57.790Z,10.53
2023-05-12T00:53:00.671Z,10.49
2023-05-12T00:54:02.895Z,10.47
2023-05-12T00:55:08.396Z,10.43
2023-05-12T00:56:12.277Z,10.41
2023-05-12T00:57:14.590Z,10.38
2023-05-12T00:58:16.683Z,10.35
2023-05-12T00:59:18.716Z,10.31
2023-05-12T01:00:22.713Z,10.28
2023-05-12T01:01:25.149Z,10.25
2023-05-12T01:02:29.481Z,10.23
2023-05-12T01:03:32.463Z,10.20
2023-05-12T01:04:37.341Z,10.18
2023-05-12T01:06:02.396Z,10.16
2023-05-12T01:08:39.451Z,10.18
2023-05-12T01:09:42.123Z,10.06
2023-05-12T01:10:46.668Z,10.03
2023-05-12T01:11:51.766Z,10.01
2023-05-12T01:12:54.775Z,9.97
2023-05-12T01:13:58.869Z,9.96
2023-05-12T01:15:05.930Z,9.94
2023-05-12T01:16:09.195Z,9.91
2023-05-12T01:17:12.161Z,9.90
2023-05-12T01:18:16.140Z,9.87
2023-05-12T01:19:47.081Z,9.86
2023-05-12T01:20:49.633Z,9.84
2023-05-12T01:21:52.099Z,9.81
2023-05-12T01:22:56.071Z,9.77
2023-05-12T01:24:02.319Z,9.75
2023-05-12T01:25:07.508Z,9.74
2023-05-12T01:26:10.914Z,9.73
2023-05-12T01:27:14.284Z,9.73
2023-05-12T01:28:16.376Z,9.74
2023-05-12T01:29:18.640Z,9.73
2023-05-12T01:30:23.329Z,9.73
2023-05-12T01:31:26.119Z,9.74
2023-05-12T01:32:28.922Z,9.73
2023-05-12T01:33:31.068Z,9.72
2023-05-12T01:34:34.555Z,9.72
2023-05-12T01:35:36.637Z,9.71
2023-05-12T01:36:39.574Z,9.71
2023-05-12T01:37:42.114Z,9.70
2023-05-12T01:38:44.214Z,9.71
2023-05-12T01:39:46.288Z,9.72
2023-05-12T01:40:53.082Z,9.71
2023-05-12T01:41:56.568Z,9.72
2023-05-12T01:42:58.589Z,9.73
2023-05-12T01:44:02.606Z,9.72
2023-05-12T01:45:09.816Z,9.72
2023-05-12T01:46:12.001Z,9.73
2023-05-12T01:47:15.354Z,9.72
2023-05-12T01:48:19.449Z,9.69
2023-05-12T01:49:21.744Z,9.68
2023-05-12T01:50:25.415Z,9.67
2023-05-12T01:51:28.305Z,9.67
2023-05-12T01:52:32.014Z,9.68
2023-05-12T01:53:34.318Z,9.67
2023-05-12T01:54:36.380Z,9.67
2023-05-12T01:55:38.737Z,9.68
2023-05-12T01:56:41.178Z,9.68
2023-05-12T01:57:43.264Z,9.68
2023-05-12T01:58:45.425Z,9.67
2023-05-12T01:59:47.703Z,9.68
2023-05-12T02:00:53.371Z,9.69
2023-05-12T02:01:55.713Z,9.68
2023-05-12T02:03:00.230Z,9.69
2023-05-12T02:04:04.174Z,9.70
2023-05-12T02:05:09.171Z,9.69
2023-05-12T02:06:11.810Z,9.68
2023-05-12T02:07:15.853Z,9.68
2023-05-12T02:08:18.192Z,9.67
2023-05-12T02:09:20.486Z,9.66
2023-05-12T02:10:23.768Z,9.66
2023-05-12T02:11:26.136Z,9.65
2023-05-12T02:12:28.220Z,9.66
2023-05-12T02:13:30.330Z,9.66
2023-05-12T02:14:32.456Z,9.64
2023-05-12T02:15:34.540Z,9.65
2023-05-12T02:16:37.368Z,9.65
2023-05-12T02:17:39.855Z,9.65
2023-05-12T02:18:43.842Z,9.63
2023-05-12T02:19:47.238Z,9.63
2023-05-12T02:20:49.818Z,9.63
2023-05-12T02:21:51.981Z,9.62
2023-05-12T02:22:54.131Z,9.62
2023-05-12T02:23:56.284Z,9.64
2023-05-12T02:24:58.711Z,9.63
2023-05-12T02:26:01.788Z,9.64
2023-05-12T02:27:03.995Z,9.65
2023-05-12T02:28:06.748Z,9.66
2023-05-12T02:29:08.665Z,9.66
2023-05-12T02:30:11.628Z,9.66
2023-05-12T02:31:19.549Z,9.65
2023-05-12T02:32:21.803Z,9.66
2023-05-12T02:33:28.265Z,9.64
2023-05-12T02:34:30.438Z,9.62
2023-05-12T02:35:32.587Z,9.60
2023-05-12T02:36:34.781Z,9.56
2023-05-12T02:37:37.175Z,9.56
2023-05-12T02:38:39.819Z,9.53
2023-05-12T02:39:41.929Z,9.51
2023-05-12T02:40:44.243Z,9.52
2023-05-12T02:41:48.252Z,9.50
2023-05-12T02:42:51.285Z,9.51
2023-05-12T02:43:53.423Z,9.50
2023-05-12T02:44:55.321Z,9.51
2023-05-12T02:45:58.138Z,9.52
2023-05-12T02:47:01.469Z,9.50
2023-05-12T02:48:06.330Z,9.52
2023-05-12T02:49:08.556Z,9.52
2023-05-12T02:50:11.698Z,9.54
2023-05-12T02:51:14.004Z,9.56
2023-05-12T02:52:16.269Z,9.57
2023-05-12T02:53:18.306Z,9.59
2023-05-12T02:54:21.287Z,9.59
2023-05-12T02:55:23.436Z,9.60
2023-05-12T02:56:29.758Z,9.59
2023-05-12T02:57:33.285Z,9.58
2023-05-12T02:58:35.225Z,9.59
2023-05-12T02:59:37.364Z,9.59
2023-05-12T03:00:40.115Z,9.59
2023-05-12T03:01:42.538Z,9.60
2023-05-12T03:02:44.743Z,9.61
2023-05-12T03:03:47.047Z,9.62
2023-05-12T03:04:50.095Z,9.62
2023-05-12T03:05:52.470Z,9.62
2023-05-12T03:06:54.870Z,9.62
2023-05-12T03:07:57.022Z,9.63
2023-05-12T03:08:59.205Z,9.65
2023-05-12T03:10:01.756Z,9.64
2023-05-12T03:11:03.876Z,9.65
2023-05-12T03:12:09.877Z,9.65
2023-05-12T03:13:12.292Z,9.64
2023-05-12T03:14:14.502Z,9.65
2023-05-12T03:15:17.517Z,9.66
2023-05-12T03:16:20.393Z,9.66
2023-05-12T03:17:23.586Z,9.68
2023-05-12T03:18:26.897Z,9.69
2023-05-12T03:19:29.822Z,9.72
2023-05-12T03:20:32.425Z,9.72
2023-05-12T03:21:37.123Z,9.74
2023-05-12T03:22:39.574Z,9.75
2023-05-12T03:23:41.566Z,9.76
2023-05-12T03:24:43.771Z,9.76
2023-05-12T03:25:45.855Z,9.78
2023-05-12T03:26:49.296Z,9.79
2023-05-12T03:27:51.382Z,9.81
2023-05-12T03:28:53.921Z,9.84
2023-05-12T03:29:56.213Z,9.86
2023-05-12T03:30:59.657Z,9.90
2023-05-12T03:32:02.017Z,9.94
2023-05-12T03:33:05.338Z,9.96
2023-05-12T03:34:09.587Z,9.99
2023-05-12T03:35:11.729Z,10.02
2023-05-12T03:36:14.841Z,10.04
2023-05-12T03:37:17.202Z,10.09
2023-05-12T03:38:20.356Z,10.11
2023-05-12T03:39:22.404Z,10.15
2023-05-12T03:40:24.626Z,10.18
2023-05-12T03:41:26.862Z,10.19
2023-05-12T03:42:29.588Z,10.22
2023-05-12T03:43:31.737Z,10.25
2023-05-12T03:44:33.860Z,10.29
2023-05-12T03:45:36.048Z,10.32
2023-05-12T03:46:39.271Z,10.36
2023-05-12T03:47:43.308Z,10.38
2023-05-12T03:48:45.505Z,10.42
2023-05-12T03:49:47.743Z,10.45
2023-05-12T03:50:50.701Z,10.49
2023-05-12T03:51:52.804Z,10.52
2023-05-12T03:52:55.054Z,10.56
2023-05-12T03:53:57.048Z,10.58
2023-05-12T03:54:59.191Z,10.59
2023-05-12T03:56:07.738Z,10.64
2023-05-12T03:57:09.839Z,10.66
2023-05-12T03:58:12.059Z,10.69
2023-05-12T03:59:14.004Z,10.71
2023-05-12T04:00:20.752Z,10.75
2023-05-12T04:01:23.091Z,10.76
2023-05-12T04:02:25.796Z,10.79
2023-05-12T04:03:28.505Z,10.82
2023-05-12T04:04:30.755Z,10.86
2023-05-12T04:05:34.701Z,10.89
2023-05-12T04:06:37.872Z,10.92
2023-05-12T04:07:39.959Z,10.95
2023-05-12T04:08:43.006Z,10.98
2023-05-12T04:09:45.248Z,10.99
2023-05-12T04:15:01.325Z,11.11
2023-05-12T04:16:05.507Z,11.15
2023-05-12T04:17:07.674Z,11.18
2023-05-12T04:18:09.793Z,11.21
2023-05-12T04:19:13.648Z,11.23
2023-05-12T04:20:16.766Z,11.25
2023-05-12T04:21:18.950Z,11.27
2023-05-12T04:22:22.762Z,11.30
2023-05-12T04:23:26.538Z,11.34
2023-05-12T04:24:28.858Z,11.35
2023-05-12T04:25:30.976Z,11.39
2023-05-12T04:26:33.227Z,11.41
2023-05-12T04:27:35.344Z,11.46
2023-05-12T04:28:37.498Z,11.48
2023-05-12T04:29:40.476Z,11.50
2023-05-12T04:30:43.173Z,11.53
2023-05-12T04:31:45.289Z,11.56
2023-05-12T04:32:47.431Z,11.60
2023-05-12T04:33:49.703Z,11.63
2023-05-12T04:34:51.877Z,11.66
2023-05-12T04:35:57.710Z,11.69
2023-05-12T04:37:00.133Z,11.72
2023-05-12T04:38:02.337Z,11.76
2023-05-12T04:39:05.020Z,11.80
2023-05-12T04:40:11.097Z,11.85
2023-05-12T04:41:13.148Z,11.89
2023-05-12T04:42:15.240Z,11.93
2023-05-12T04:47:20.459Z,12.08
2023-05-12T04:48:24.474Z,12.14
2023-05-12T04:49:26.605Z,12.17
2023-05-12T04:50:29.084Z,12.21
2023-05-12T04:51:31.704Z,12.25
2023-05-12T04:52:34.249Z,12.28
2023-05-12T04:53:36.432Z,12.31
2023-05-12T04:54:38.751Z,12.36
2023-05-12T04:55:40.754Z,12.39
2023-05-12T04:56:42.915Z,12.44
2023-05-12T04:57:45.195Z,12.49
2023-05-12T04:58:47.308Z,12.54
2023-05-12T04:59:49.316Z,12.60
2023-05-12T05:00:52.260Z,12.66
2023-05-12T05:01:54.753Z,12.72
2023-05-12T05:02:57.341Z,12.79
2023-05-12T05:03:59.866Z,12.84
2023-05-12T05:05:02.365Z,12.89
2023-05-12T05:06:06.078Z,12.92
2023-05-12T05:07:08.606Z,12.96
2023-05-12T05:08:10.830Z,13.00
2023-05-12T05:09:13.059Z,13.02
2023-05-12T05:10:16.873Z,13.05
2023-05-12T05:11:19.672Z,13.06
2023-05-12T05:12:22.053Z,13.07
2023-05-12T05:13:24.212Z,13.10
2023-05-12T05:14:27.057Z,13.12
2023-05-12T05:15:29.751Z,13.14
2023-05-12T05:16:33.790Z,13.17
2023-05-12T05:17:37.080Z,13.20
2023-05-12T05:18:41.154Z,13.22
2023-05-12T05:19:54.922Z,13.27
2023-05-12T05:21:52.913Z,13.32
2023-05-12T05:22:54.958Z,13.36
2023-05-12T05:23:57.984Z,13.39
2023-05-12T05:25:00.118Z,13.42
2023-05-12T05:26:02.528Z,13.45
2023-05-12T05:27:06.031Z,13.48
2023-05-12T05:28:11.155Z,13.53
2023-05-12T05:29:13.202Z,13.55
2023-05-12T05:30:16.079Z,13.59
2023-05-12T05:31:20.536Z,13.64
2023-05-12T05:32:22.797Z,13.69
2023-05-12T05:33:25.065Z,13.74
2023-05-12T05:34:27.103Z,13.79
2023-05-12T05:35:30.811Z,13.83
2023-05-12T05:36:34.003Z,13.87
2023-05-12T05:37:36.102Z,13.92
2023-05-12T05:38:38.389Z,13.97
2023-05-12T05:39:40.469Z,14.01
2023-05-12T05:40:52.824Z,14.06
2023-05-12T05:41:46.524Z,14.09
2023-05-12T05:42:49.620Z,14.10
2023-05-12T05:43:51.882Z,14.13
2023-05-12T05:44:53.968Z,14.17
2023-05-12T05:45:55.908Z,14.23
2023-05-12T05:46:58.333Z,14.25
2023-05-12T05:48:01.271Z,14.29
2023-05-12T05:49:04.613Z,14.31
2023-05-12T05:50:08.396Z,14.35
2023-05-12T05:51:12.481Z,14.39
2023-05-12T05:52:15.203Z,14.43
2023-05-12T05:53:19.678Z,14.45
2023-05-12T05:54:25.124Z,14.50
2023-05-12T05:55:27.820Z,14.57
2023-05-12T05:56:30.040Z,14.62
2023-05-12T05:57:31.955Z,14.69
2023-05-12T05:58:35.029Z,14.77
2023-05-12T05:59:38.424Z,14.85
2023-05-12T06:00:42.227Z,14.94
2023-05-12T06:01:44.432Z,15.02
2023-05-12T06:06:30.928Z,15.28
2023-05-12T06:07:35.072Z,15.31
2023-05-12T06:08:37.975Z,15.34
2023-05-12T06:09:41.308Z,15.38
2023-05-12T06:10:43.453Z,15.41
2023-05-12T06:15:30.274Z,15.58
2023-05-12T06:16:32.609Z,15.59
2023-05-12T06:17:35.123Z,15.62
2023-05-12T06:18:38.025Z,15.66
2023-05-12T06:19:40.826Z,15.66
2023-05-12T06:20:43.084Z,15.62
2023-05-12T06:21:45.234Z,15.63
2023-05-12T06:22:48.923Z,15.65
2023-05-12T06:23:51.327Z,15.69
2023-05-12T06:24:53.484Z,15.74
2023-05-12T06:27:05.432Z,15.85
2023-05-12T06:28:07.565Z,15.77
2023-05-12T06:29:10.068Z,15.80
2023-05-12T06:30:15.986Z,15.80
2023-05-12T06:31:18.456Z,15.83
2023-05-12T06:32:23.442Z,15.89
2023-05-12T06:33:26.042Z,15.94
2023-05-12T06:34:28.136Z,15.95
2023-05-12T06:35:30.133Z,15.99
2023-05-12T06:36:32.297Z,16.04
2023-05-12T06:37:34.467Z,16.07
2023-05-12T06:38:36.381Z,16.12
2023-05-12T06:39:38.342Z,16.19
2023-05-12T06:40:40.527Z,16.23
2023-05-12T06:41:42.840Z,16.23
2023-05-12T06:42:47.082Z,16.26
2023-05-12T06:43:51.517Z,16.33
2023-05-12T06:44:55.436Z,16.38
2023-05-12T06:45:57.560Z,16.43
2023-05-12T06:47:00.206Z,16.47
2023-05-12T06:48:06.570Z,16.51
2023-05-12T06:49:08.729Z,16.55
2023-05-12T06:50:12.622Z,16.61
2023-05-12T06:51:15.278Z,16.67
2023-05-12T06:52:17.519Z,16.72
2023-05-12T06:53:19.699Z,16.77
2023-05-12T06:54:21.929Z,16.81
2023-05-12T06:55:25.841Z,16.86
2023-05-12T06:56:28.068Z,16.90
2023-05-12T06:57:30.094Z,16.93
2023-05-12T06:58:32.239Z,16.94
2023-05-12T06:59:34.376Z,16.95
2023-05-12T07:00:36.814Z,16.91
2023-05-12T07:01:40.135Z,16.89
2023-05-12T07:02:42.243Z,16.84
2023-05-12T07:03:44.608Z,16.82
2023-05-12T07:04:46.873Z,16.83
2023-05-12T07:05:49.052Z,16.83
2023-05-12T07:06:51.854Z,16.83
2023-05-12T07:07:54.200Z,16.84
2023-05-12T07:08:56.229Z,16.85
2023-05-12T07:12:34.192Z,16.93
2023-05-12T07:13:36.437Z,17.00
2023-05-12T07:14:38.398Z,17.06
2023-05-12T07:15:40.467Z,17.08
2023-05-12T07:16:42.489Z,17.09
2023-05-12T07:17:44.631Z,17.11
2023-05-12T07:18:47.064Z,17.11
2023-05-12T07:19:49.667Z,17.13
2023-05-12T07:20:52.136Z,17.14
2023-05-12T07:21:55.187Z,17.13
2023-05-12T07:22:57.154Z,17.13
2023-05-12T07:23:59.283Z,17.17
2023-05-12T07:25:01.468Z,17.23
2023-05-12T07:26:05.293Z,17.28
2023-05-12T07:27:07.391Z,17.32
2023-05-12T07:28:09.431Z,17.38
2023-05-12T07:29:13.684Z,17.40
2023-05-12T07:30:16.017Z,17.38
2023-05-12T07:31:18.263Z,17.38
2023-05-12T07:32:20.736Z,17.37
2023-05-12T07:33:23.043Z,17.38
2023-05-12T07:34:25.368Z,17.41
2023-05-12T07:35:27.404Z,17.46
2023-05-12T07:36:30.002Z,17.49
2023-05-12T07:37:31.956Z,17.53
2023-05-12T07:38:34.614Z,17.57
2023-05-12T07:39:36.724Z,17.58
2023-05-12T07:40:40.170Z,17.63
2023-05-12T07:41:44.212Z,17.67
2023-05-12T07:42:46.236Z,17.69
2023-05-12T07:43:48.223Z,17.70
2023-05-12T07:44:50.339Z,17.72
2023-05-12T07:45:52.769Z,17.69
2023-05-12T07:46:54.916Z,17.64
2023-05-12T07:47:57.611Z,17.59
2023-05-12T07:48:59.611Z,17.60
2023-05-12T07:50:01.636Z,17.61
2023-05-12T07:51:03.851Z,17.63
2023-05-12T07:52:05.932Z,17.66
2023-05-12T07:53:08.223Z,17.70
2023-05-12T07:54:10.434Z,17.75
2023-05-12T07:55:12.445Z,17.83
2023-05-12T07:56:15.297Z,17.86
2023-05-12T07:57:17.607Z,17.87
2023-05-12T07:58:19.585Z,17.88
2023-05-12T07:59:21.624Z,17.90
2023-05-12T08:00:24.367Z,17.97
2023-05-12T08:01:26.523Z,18.02
2023-05-12T08:02:28.874Z,18.01
2023-05-12T08:03:33.155Z,17.97
2023-05-12T08:04:35.279Z,17.97
2023-05-12T08:05:37.759Z,17.96
2023-05-12T08:06:39.999Z,17.95
2023-05-12T08:07:42.209Z,18.00
2023-05-12T08:08:44.345Z,18.04
2023-05-12T08:09:46.441Z,18.07
2023-05-12T08:10:50.546Z,18.06
2023-05-12T08:11:52.772Z,18.08
2023-05-12T08:12:55.253Z,18.12
2023-05-12T08:13:57.558Z,18.14
2023-05-12T08:14:59.645Z,18.14
2023-05-12T08:16:02.134Z,18.10
2023-05-12T08:17:05.544Z,18.07
2023-05-12T08:18:08.582Z,18.10
2023-05-12T08:19:15.398Z,18.12
2023-05-12T08:20:17.948Z,18.13
2023-05-12T08:21:20.633Z,18.16
2023-05-12T08:22:22.655Z,18.14
2023-05-12T08:23:24.804Z,18.16
2023-05-12T08:24:26.935Z,18.18
2023-05-12T08:25:29.220Z,18.21
2023-05-12T08:26:35.021Z,18.25
2023-05-12T08:27:37.250Z,18.27
2023-05-12T08:28:39.345Z,18.30
2023-05-12T08:29:41.238Z,18.37
2023-05-12T08:30:46.578Z,18.40
2023-05-12T08:31:49.623Z,18.44
2023-05-12T08:32:52.754Z,18.48
2023-05-12T08:35:01.970Z,18.57
2023-05-12T08:36:05.901Z,18.62
2023-05-12T08:37:08.078Z,18.63
2023-05-12T08:38:10.345Z,18.60
2023-05-12T08:39:12.426Z,18.55
2023-05-12T08:40:20.392Z,18.49
2023-05-12T08:41:31.958Z,18.47
2023-05-12T08:42:46.671Z,18.46
2023-05-12T08:43:50.700Z,18.49
2023-05-12T08:44:53.652Z,18.52
2023-05-12T08:45:58.665Z,18.53
2023-05-12T08:47:01.040Z,18.50
2023-05-12T08:48:05.788Z,18.52
2023-05-12T08:49:10.008Z,18.54
2023-05-12T08:50:12.512Z,18.58
2023-05-12T08:51:14.654Z,18.61
2023-05-12T08:52:16.552Z,18.65
2023-05-12T08:53:18.569Z,18.72
2023-05-12T08:54:21.041Z,18.81
2023-05-12T08:55:26.303Z,18.85
2023-05-12T08:57:31.560Z,18.87
2023-05-12T08:58:41.576Z,18.78
2023-05-12T08:59:39.257Z,18.80
2023-05-12T09:00:41.375Z,18.80
2023-05-12T09:01:43.515Z,18.84
2023-05-12T09:02:53.041Z,18.88
2023-05-12T09:03:51.782Z,18.92
2023-05-12T09:04:54.939Z,18.95
2023-05-12T09:05:58.436Z,18.99
2023-05-12T09:07:00.648Z,19.05
2023-05-12T09:08:05.664Z,19.11
2023-05-12T09:09:07.824Z,19.16
2023-05-12T09:10:29.860Z,19.20
2023-05-12T09:11:19.790Z,19.21
2023-05-12T09:12:21.958Z,19.20
2023-05-12T09:13:38.826Z,19.22
2023-05-12T09:14:41.157Z,19.22
2023-05-12T09:15:44.717Z,19.19
2023-05-12T09:16:48.484Z,19.19
2023-05-12T09:17:50.669Z,19.22
2023-05-12T09:18:55.281Z,19.28
2023-05-12T09:19:57.493Z,19.36
2023-05-12T09:21:01.544Z,19.46
2023-05-12T09:22:03.587Z,19.51
2023-05-12T09:23:21.190Z,19.57
2023-05-12T09:24:37.536Z,19.60
2023-05-12T09:25:39.805Z,19.60
2023-05-12T09:26:53.278Z,19.61
2023-05-12T09:27:55.554Z,19.63
2023-05-12T09:29:05.286Z,19.64
2023-05-12T09:30:10.925Z,19.65
2023-05-12T09:31:18.005Z,19.67
2023-05-12T09:32:30.802Z,19.69
2023-05-12T09:33:34.125Z,19.76
2023-05-12T09:34:36.103Z,19.79
2023-05-12T09:35:41.962Z,19.83
2023-05-12T09:36:45.010Z,19.86
2023-05-12T09:37:46.986Z,19.88
2023-05-12T09:40:28.981Z,19.90
2023-05-12T09:41:34.721Z,19.78
2023-05-12T09:42:36.869Z,19.74
2023-05-12T09:43:46.498Z,19.69
2023-05-12T09:44:48.512Z,19.71
2023-05-12T09:45:50.701Z,19.75
2023-05-12T09:46:55.779Z,19.80
2023-05-12T09:47:57.967Z,19.75
2023-05-12T09:49:00.496Z,19.79
2023-05-12T09:50:05.175Z,19.79
2023-05-12T09:51:09.634Z,19.80
2023-05-12T09:52:11.583Z,19.78
2023-05-12T09:53:13.668Z,19.71
2023-05-12T09:54:24.305Z,19.69
2023-05-12T09:55:26.607Z,19.63
2023-05-12T09:56:30.141Z,19.55
2023-05-12T09:57:32.394Z,19.49
2023-05-12T09:58:35.929Z,19.44
2023-05-12T09:59:41.010Z,19.42
2023-05-12T10:01:06.565Z,19.42
2023-05-12T10:01:47.966Z,19.41
2023-05-12T10:02:50.508Z,19.44
2023-05-12T10:03:55.211Z,19.51
2023-05-12T10:04:59.840Z,19.57
2023-05-12T10:06:04.550Z,19.68
2023-05-12T10:07:08.387Z,19.79
2023-05-12T10:08:10.501Z,19.88
2023-05-12T10:09:30.549Z,19.99
2023-05-12T10:10:32.848Z,20.07
2023-05-12T10:11:34.968Z,20.18
2023-05-12T10:12:36.857Z,20.27
2023-05-12T10:13:41.587Z,20.33
2023-05-12T10:14:43.672Z,20.43
2023-05-12T10:15:46.352Z,20.54
2023-05-12T10:16:48.821Z,20.72
2023-05-12T10:17:53.777Z,20.85
2023-05-12T10:18:55.348Z,20.92
2023-05-12T10:19:57.571Z,20.91
2023-05-12T10:21:00.647Z,20.86
2023-05-12T10:22:03.222Z,20.82
2023-05-12T10:23:05.324Z,20.85
2023-05-12T10:24:09.456Z,20.90
2023-05-12T10:25:11.654Z,20.91
2023-05-12T10:26:14.157Z,20.88
2023-05-12T10:27:16.868Z,20.94
2023-05-12T10:28:18.930Z,20.94
2023-05-12T10:29:21.171Z,20.91
2023-05-12T10:30:23.304Z,20.87
2023-05-12T10:31:25.609Z,20.83
2023-05-12T10:32:28.011Z,20.82
2023-05-12T10:33:32.234Z,20.85
2023-05-12T10:34:36.310Z,20.87
2023-05-12T10:35:38.980Z,20.88
2023-05-12T10:36:48.519Z,20.81
2023-05-12T10:37:50.683Z,20.75
2023-05-12T10:38:52.797Z,20.66
2023-05-12T10:39:54.737Z,20.59
2023-05-12T10:41:01.377Z,20.50
2023-05-12T10:42:10.407Z,20.44
2023-05-12T10:44:29.170Z,20.36
2023-05-12T10:45:37.377Z,20.24
2023-05-12T10:46:39.635Z,20.20
2023-05-12T10:47:43.745Z,20.16
2023-05-12T10:49:04.756Z,20.15
2023-05-12T10:50:10.066Z,20.17
2023-05-12T10:51:12.430Z,20.14
2023-05-12T10:52:18.302Z,20.11
2023-05-12T10:53:38.110Z,20.09
2023-05-12T10:54:37.385Z,20.10
2023-05-12T10:55:44.458Z,20.11
2023-05-12T10:56:47.234Z,20.12
2023-05-12T10:57:50.259Z,20.14
2023-05-12T10:59:15.879Z,20.16
2023-05-12T11:00:23.326Z,20.16
2023-05-12T11:01:26.443Z,20.21
2023-05-12T11:02:30.522Z,20.24
2023-05-12T11:03:33.649Z,20.31
2023-05-12T11:04:58.089Z,20.38
2023-05-12T11:06:05.052Z,20.46
2023-05-12T11:07:09.776Z,20.64
2023-05-12T11:08:12.441Z,20.72
2023-05-12T11:09:17.483Z,20.82
2023-05-12T11:10:20.450Z,20.91
2023-05-12T11:11:25.050Z,20.97
2023-05-12T11:12:30.484Z,21.02
2023-05-12T11:13:32.588Z,21.07
2023-05-12T11:14:35.449Z,21.08
2023-05-12T11:15:38.183Z,21.08
2023-05-12T11:16:44.323Z,21.10
2023-05-12T11:17:46.740Z,21.13
2023-05-12T11:18:49.028Z,21.16
2023-05-12T11:19:51.375Z,21.16
2023-05-12T11:20:54.727Z,21.19
2023-05-12T11:21:56.829Z,21.23
2023-05-12T11:22:58.853Z,21.18
2023-05-12T11:24:01.449Z,21.16
2023-05-12T11:25:12.644Z,21.11
2023-05-12T11:26:18.832Z,21.06
2023-05-12T11:27:21.756Z,21.06
2023-05-12T11:28:23.803Z,21.07
2023-05-12T11:29:26.143Z,21.06
2023-05-12T11:30:29.047Z,21.08
2023-05-12T11:31:31.251Z,21.10
2023-05-12T11:32:33.331Z,21.13
2023-05-12T11:33:35.329Z,21.18
2023-05-12T11:34:38.327Z,21.26
2023-05-12T11:35:40.517Z,21.36
2023-05-12T11:36:43.943Z,21.47
2023-05-12T11:37:46.390Z,21.58
2023-05-12T11:39:58.615Z,21.86
2023-05-12T11:41:00.888Z,21.81
2023-05-12T11:42:12.941Z,21.80
2023-05-12T11:43:10.415Z,21.85
2023-05-12T11:45:28.054Z,21.96
2023-05-12T11:46:30.588Z,21.93
2023-05-12T11:47:32.905Z,21.99
2023-05-12T11:48:35.050Z,22.05
2023-05-12T11:49:51.850Z,22.09
2023-05-12T11:50:55.808Z,22.08
2023-05-12T11:53:12.602Z,22.09
2023-05-12T11:54:14.894Z,22.02
2023-05-12T11:55:21.421Z,21.97
2023-05-12T11:56:23.837Z,21.97
2023-05-12T11:57:32.875Z,21.98
2023-05-12T11:58:37.620Z,22.02
2023-05-12T11:59:39.961Z,21.89
2023-05-12T12:00:43.140Z,21.81
2023-05-12T12:01:45.678Z,21.71
2023-05-12T12:02:47.769Z,21.68
2023-05-12T12:03:51.875Z,21.61
2023-05-12T12:04:53.889Z,21.64
2023-05-12T12:07:08.328Z,21.87
2023-05-12T12:08:12.983Z,21.82
2023-05-12T12:09:15.047Z,21.78
2023-05-12T12:10:18.907Z,21.78
2023-05-12T12:11:21.675Z,21.80
2023-05-12T12:12:23.735Z,21.81
2023-05-12T12:13:26.015Z,21.83
2023-05-12T12:14:29.649Z,21.78
2023-05-12T12:15:31.845Z,21.72
2023-05-12T12:16:34.593Z,21.68
2023-05-12T12:17:37.693Z,21.63
2023-05-12T12:18:40.047Z,21.60
2023-05-12T12:19:43.066Z,21.54
2023-05-12T12:20:48.476Z,21.48
2023-05-12T12:21:50.764Z,21.48
2023-05-12T12:22:53.447Z,21.49
2023-05-12T12:23:55.723Z,21.50
2023-05-12T12:24:57.799Z,21.53
2023-05-12T12:26:01.574Z,21.59
2023-05-12T12:27:05.487Z,21.65
2023-05-12T12:28:07.968Z,21.73
2023-05-12T12:29:10.269Z,21.82
2023-05-12T12:30:14.716Z,21.91
2023-05-12T12:31:17.086Z,22.03
2023-05-12T12:32:19.348Z,22.14
2023-05-12T12:33:21.493Z,22.21
2023-05-12T12:34:23.999Z,22.29
2023-05-12T12:35:25.987Z,22.23
2023-05-12T12:36:28.405Z,22.17
2023-05-12T12:37:30.435Z,22.17
2023-05-12T12:38:32.453Z,22.22
2023-05-12T12:39:34.681Z,22.21
2023-05-12T12:40:37.178Z,22.18
2023-05-12T12:41:39.402Z,22.21
2023-05-12T12:42:41.413Z,22.22
2023-05-12T12:43:43.371Z,22.23
2023-05-12T12:44:45.543Z,22.22
2023-05-12T12:45:48.083Z,22.07
2023-05-12T12:46:50.445Z,22.01
2023-05-12T12:47:52.762Z,21.91
2023-05-12T12:48:55.148Z,21.82
2023-05-12T12:49:57.552Z,21.80
2023-05-12T12:51:00.890Z,21.75
2023-05-12T12:52:06.079Z,21.68
2023-05-12T12:53:08.162Z,21.64
2023-05-12T12:54:10.222Z,21.54
2023-05-12T12:55:12.321Z,21.51
2023-05-12T12:56:14.867Z,21.44
2023-05-12T12:57:17.064Z,21.44
2023-05-12T12:58:19.206Z,21.43
2023-05-12T12:59:21.541Z,21.41
2023-05-12T13:00:24.556Z,21.35
2023-05-12T13:01:28.128Z,21.29
2023-05-12T13:02:31.493Z,21.25
2023-05-12T13:03:34.623Z,21.18
2023-05-12T13:04:36.824Z,21.15
2023-05-12T13:05:38.800Z,21.12
2023-05-12T13:06:41.191Z,21.06
2023-05-12T13:07:43.250Z,20.99
2023-05-12T13:08:45.548Z,20.94
2023-05-12T13:09:47.638Z,20.90
2023-05-12T13:10:50.020Z,20.85
2023-05-12T13:11:52.277Z,20.79
2023-05-12T13:12:54.484Z,20.75
2023-05-12T13:13:57.667Z,20.72
2023-05-12T13:14:59.703Z,20.72
2023-05-12T13:16:05.307Z,20.69
2023-05-12T13:17:07.679Z,20.69
2023-05-12T13:18:11.630Z,20.74
2023-05-12T13:19:14.016Z,20.77
2023-05-12T13:20:16.879Z,20.83
2023-05-12T13:21:19.133Z,20.84
2023-05-12T13:22:21.236Z,20.85
2023-05-12T13:23:23.541Z,20.88
2023-05-12T13:24:25.559Z,20.89
2023-05-12T13:25:27.657Z,20.89
2023-05-12T13:26:29.822Z,20.93
2023-05-12T13:27:31.795Z,20.95
2023-05-12T13:28:33.949Z,20.95
2023-05-12T13:29:36.051Z,20.97
2023-05-12T13:30:38.337Z,20.95
2023-05-12T13:31:41.644Z,20.95
2023-05-12T13:32:43.896Z,20.99
2023-05-12T13:33:46.252Z,20.99
2023-05-12T13:34:48.474Z,21.00
2023-05-12T13:35:50.529Z,21.03
2023-05-12T13:36:53.068Z,21.05
2023-05-12T13:37:55.260Z,21.09
2023-05-12T13:38:57.274Z,21.10
2023-05-12T13:39:59.521Z,21.15
2023-05-12T13:41:03.643Z,21.19
2023-05-12T13:42:09.000Z,21.24
2023-05-12T13:43:11.073Z,21.27
2023-05-12T13:44:13.163Z,21.28
2023-05-12T13:45:15.563Z,21.27
2023-05-12T13:46:19.028Z,21.25
2023-05-12T13:47:21.560Z,21.20
2023-05-12T13:48:30.117Z,21.16
2023-05-12T13:49:32.177Z,21.12
2023-05-12T13:50:34.533Z,21.09
2023-05-12T13:51:36.862Z,21.09
2023-05-12T13:52:38.937Z,21.08
2023-05-12T13:53:40.940Z,21.08
2023-05-12T13:54:49.421Z,21.07
2023-05-12T13:55:51.382Z,21.08
2023-05-12T13:56:53.950Z,21.05
2023-05-12T13:57:56.029Z,21.08
2023-05-12T13:58:58.141Z,21.06
2023-05-12T14:00:00.208Z,21.04
2023-05-12T14:01:02.249Z,21.02
2023-05-12T14:02:05.815Z,21.02
2023-05-12T14:03:08.323Z,21.02
2023-05-12T14:04:11.860Z,21.03
2023-05-12T14:05:14.001Z,21.01
2023-05-12T14:06:17.408Z,21.02
2023-05-12T14:07:19.945Z,20.99
2023-05-12T14:08:21.841Z,20.95
2023-05-12T14:09:23.892Z,20.92
2023-05-12T14:10:26.595Z,20.92
2023-05-12T14:11:28.754Z,20.95
2023-05-12T14:12:30.993Z,20.98